createdAt,value
2023-11-23T00:01:21.958Z,76.94
2023-11-23T00:03:49.667Z,77.30
2023-11-23T00:06:17.549Z,77.51
2023-11-23T00:08:45.461Z,77.60
2023-11-23T00:11:13.176Z,77.82
2023-11-23T00:13:40.773Z,78.03
2023-11-23T00:16:08.696Z,78.03
2023-11-23T00:18:36.498Z,77.96
2023-11-23T00:21:04.393Z,77.84
2023-11-23T00:23:33.273Z,78.09
2023-11-23T00:26:03.825Z,78.10
2023-11-23T00:28:31.700Z,78.31
2023-11-23T00:30:59.581Z,78.30
2023-11-23T00:33:27.335Z,78.41
2023-11-23T00:35:55.503Z,78.33
2023-11-23T00:38:23.475Z,78.33
2023-11-23T00:40:51.103Z,78.45
2023-11-23T00:43:18.671Z,78.54
2023-11-23T00:45:46.240Z,78.71
2023-11-23T00:48:14.203Z,78.71
2023-11-23T00:50:41.965Z,78.74
2023-11-23T00:53:09.624Z,78.81
2023-11-23T00:55:38.035Z,78.82
2023-11-23T00:58:06.174Z,78.65
2023-11-23T01:00:33.934Z,78.70
2023-11-23T01:03:02.451Z,78.71
2023-11-23T01:05:30.506Z,78.81
2023-11-23T01:07:58.371Z,78.89
2023-11-23T01:10:26.113Z,78.83
2023-11-23T01:12:55.760Z,78.96
2023-11-23T01:15:24.968Z,78.94
2023-11-23T01:17:52.633Z,79.12
2023-11-23T01:20:20.321Z,79.33
2023-11-23T01:22:48.274Z,79.43
2023-11-23T01:25:16.118Z,79.55
2023-11-23T01:27:43.784Z,79.48
2023-11-23T01:30:11.929Z,79.32
2023-11-23T01:32:39.968Z,79.49
2023-11-23T01:35:09.366Z,79.45
2023-11-23T01:37:37.127Z,79.94
2023-11-23T01:40:05.498Z,79.99
2023-11-23T01:42:33.092Z,80.03
2023-11-23T01:45:00.787Z,79.96
2023-11-23T01:47:28.457Z,80.15
2023-11-23T01:49:56.253Z,80.12
2023-11-23T01:52:24.400Z,80.16
2023-11-23T01:54:52.191Z,80.27
2023-11-23T01:57:20.733Z,80.40
2023-11-23T01:59:48.444Z,80.62
2023-11-23T02:02:16.520Z,80.51
2023-11-23T02:04:44.158Z,80.68
2023-11-23T02:07:12.341Z,80.59
2023-11-23T02:09:39.951Z,80.56
2023-11-23T02:12:10.030Z,80.71
2023-11-23T02:14:37.988Z,80.48
2023-11-23T02:17:17.992Z,80.84
2023-11-23T02:19:49.996Z,80.77
2023-11-23T02:22:17.668Z,80.84
2023-11-23T02:24:45.585Z,80.88
2023-11-23T02:27:13.307Z,81.05
2023-11-23T02:29:41.011Z,81.11
2023-11-23T02:32:09.342Z,81.30
2023-11-23T02:34:37.800Z,81.31
2023-11-23T02:37:06.080Z,81.43
2023-11-23T02:39:34.045Z,81.28
2023-11-23T02:42:02.001Z,81.28
2023-11-23T02:44:30.083Z,81.40
2023-11-23T02:46:57.845Z,81.47
2023-11-23T02:49:25.468Z,81.62
2023-11-23T02:51:53.097Z,81.84
2023-11-23T02:54:20.756Z,81.84
2023-11-23T02:56:48.634Z,81.83
2023-11-23T02:59:16.312Z,81.99
2023-11-23T03:01:44.079Z,82.19
2023-11-23T03:04:12.103Z,82.04
2023-11-23T03:06:39.723Z,82.22
2023-11-23T03:09:08.645Z,82.29
2023-11-23T03:11:36.330Z,82.32
2023-11-23T03:14:05.139Z,82.33
2023-11-23T03:16:33.682Z,82.19
2023-11-23T03:19:01.677Z,82.48
2023-11-23T03:21:29.495Z,82.44
2023-11-23T03:23:57.428Z,82.39
2023-11-23T03:26:25.601Z,82.38
2023-11-23T03:28:53.758Z,82.61
2023-11-23T03:31:22.039Z,82.50
2023-11-23T03:33:49.688Z,82.63
2023-11-23T03:36:17.350Z,82.59
2023-11-23T03:38:45.130Z,82.46
2023-11-23T03:41:12.872Z,82.58
2023-11-23T03:43:40.455Z,82.53
2023-11-23T03:46:09.606Z,82.61
2023-11-23T03:48:37.314Z,82.46
2023-11-23T03:51:05.379Z,82.57
2023-11-23T03:53:33.320Z,82.52
2023-11-23T03:56:00.986Z,82.66
2023-11-23T03:58:28.583Z,82.79
2023-11-23T04:00:56.312Z,82.67
2023-11-23T04:03:23.952Z,82.78
2023-11-23T04:05:52.252Z,82.94
2023-11-23T04:08:23.221Z,82.95
2023-11-23T04:10:50.839Z,82.91
2023-11-23T04:13:18.452Z,83.02
2023-11-23T04:15:49.058Z,83.09
2023-11-23T04:18:16.688Z,83.02
2023-11-23T04:20:44.337Z,83.15
2023-11-23T04:23:12.779Z,83.08
2023-11-23T04:25:40.526Z,83.05
2023-11-23T04:28:08.169Z,83.23
2023-11-23T04:30:35.933Z,82.97
2023-11-23T04:33:03.746Z,82.84
2023-11-23T04:35:31.479Z,82.93
2023-11-23T04:37:59.355Z,82.96
2023-11-23T04:40:26.929Z,83.04
2023-11-23T04:42:54.539Z,82.94
2023-11-23T04:45:22.244Z,82.82
2023-11-23T04:47:49.988Z,82.94
2023-11-23T04:50:20.731Z,82.77
2023-11-23T04:52:49.722Z,82.94
2023-11-23T04:55:17.362Z,82.96
2023-11-23T04:57:44.950Z,82.91
2023-11-23T05:00:14.091Z,82.80
2023-11-23T05:02:44.765Z,82.83
2023-11-23T05:05:13.362Z,83.03
2023-11-23T05:07:41.469Z,82.89
2023-11-23T05:10:09.476Z,82.77
2023-11-23T05:12:37.780Z,82.66
2023-11-23T05:15:06.435Z,82.65
2023-11-23T05:17:34.108Z,82.78
2023-11-23T05:20:01.714Z,82.95
2023-11-23T05:22:29.531Z,82.70
2023-11-23T05:24:57.735Z,82.61
2023-11-23T05:27:25.423Z,82.46
2023-11-23T05:29:53.124Z,82.39
2023-11-23T05:32:20.817Z,82.48
2023-11-23T05:34:48.460Z,82.37
2023-11-23T05:37:16.055Z,82.41
2023-11-23T05:39:44.688Z,82.25
2023-11-23T05:42:12.655Z,82.04
2023-11-23T05:44:40.537Z,82.01
2023-11-23T05:47:08.417Z,82.10
2023-11-23T05:49:36.112Z,82.24
2023-11-23T05:52:03.926Z,82.11
2023-11-23T05:54:31.977Z,81.93
2023-11-23T05:56:59.607Z,81.78
2023-11-23T05:59:27.226Z,81.79
2023-11-23T06:01:55.010Z,81.82
2023-11-23T06:04:22.823Z,81.74
2023-11-23T06:06:52.844Z,81.48
2023-11-23T06:09:20.896Z,81.42
2023-11-23T06:11:48.533Z,81.57
2023-11-23T06:14:16.165Z,81.54
2023-11-23T06:16:43.864Z,81.41
2023-11-23T06:19:11.633Z,81.16
2023-11-23T06:21:39.447Z,81.06
2023-11-23T06:24:07.983Z,80.74
2023-11-23T06:26:35.586Z,80.92
2023-11-23T06:29:03.226Z,80.83
2023-11-23T06:31:31.214Z,80.63
2023-11-23T06:33:59.645Z,80.49
2023-11-23T06:36:27.358Z,80.13
2023-11-23T06:38:55.338Z,80.25
2023-11-23T06:41:23.156Z,80.12
2023-11-23T06:43:51.401Z,80.01
2023-11-23T06:46:19.683Z,80.17
2023-11-23T06:48:47.374Z,79.75
2023-11-23T06:51:15.351Z,79.69
2023-11-23T06:53:47.833Z,79.74
2023-11-23T06:56:16.708Z,79.77
2023-11-23T06:58:47.881Z,79.55
2023-11-23T07:01:16.407Z,79.60
2023-11-23T07:03:44.855Z,79.76
2023-11-23T07:06:15.448Z,79.68
2023-11-23T07:08:43.361Z,79.79
2023-11-23T07:11:14.336Z,79.56
2023-11-23T07:13:42.276Z,79.76
2023-11-23T07:16:10.984Z,79.76
2023-11-23T07:18:39.093Z,79.53
2023-11-23T07:21:07.207Z,79.56
2023-11-23T07:23:37.628Z,79.42
2023-11-23T07:26:05.835Z,79.43
2023-11-23T07:28:33.574Z,79.43
2023-11-23T07:31:02.268Z,79.49
2023-11-23T07:33:35.970Z,79.50
2023-11-23T07:36:06.938Z,79.31
2023-11-23T07:38:34.604Z,79.18
2023-11-23T07:41:02.580Z,78.89
2023-11-23T07:43:32.342Z,79.07
2023-11-23T07:46:01.337Z,78.96
2023-11-23T07:48:30.696Z,79.25
2023-11-23T07:50:58.583Z,78.69
2023-11-23T07:53:29.757Z,78.76
2023-11-23T07:56:00.740Z,78.82
2023-11-23T07:58:28.354Z,79.03
2023-11-23T08:00:56.169Z,79.02
2023-11-23T08:03:23.914Z,79.07
2023-11-23T08:05:51.725Z,79.14
2023-11-23T08:08:19.452Z,79.40
2023-11-23T08:10:47.188Z,79.77
2023-11-23T08:13:17.690Z,80.04
2023-11-23T08:15:45.351Z,80.30
2023-11-23T08:18:13.269Z,80.55
2023-11-23T08:20:41.063Z,80.88
2023-11-23T08:23:09.375Z,81.02
2023-11-23T08:25:38.228Z,81.08
2023-11-23T08:28:05.841Z,81.19
2023-11-23T08:30:33.497Z,81.64
2023-11-23T08:33:01.335Z,81.96
2023-11-23T08:35:29.612Z,81.85
2023-11-23T08:37:57.263Z,81.82
2023-11-23T08:40:24.946Z,81.80
2023-11-23T08:42:52.585Z,81.89
2023-11-23T08:45:20.202Z,81.66
2023-11-23T08:47:47.933Z,81.69
2023-11-23T08:50:15.660Z,81.73
2023-11-23T08:52:43.238Z,81.62
2023-11-23T08:55:11.329Z,81.45
2023-11-23T08:57:38.985Z,81.45
2023-11-23T09:00:13.173Z,81.36
2023-11-23T09:02:41.306Z,81.40
2023-11-23T09:05:10.810Z,81.08
2023-11-23T09:07:47.325Z,81.17
2023-11-23T09:10:15.947Z,80.91
2023-11-23T09:12:47.302Z,80.98
2023-11-23T09:15:17.146Z,81.04
2023-11-23T09:17:45.333Z,80.98
2023-11-23T09:20:14.267Z,80.86
2023-11-23T09:22:41.912Z,80.93
2023-11-23T09:25:09.835Z,80.76
2023-11-23T09:27:38.192Z,81.18
2023-11-23T09:30:09.729Z,80.97
2023-11-23T09:32:40.427Z,80.86
2023-11-23T09:35:11.332Z,80.95
2023-11-23T09:37:39.406Z,81.29
2023-11-23T09:40:10.601Z,81.13
2023-11-23T09:42:39.911Z,80.99
2023-11-23T09:45:08.991Z,80.80
2023-11-23T09:47:36.724Z,80.04
2023-11-23T09:50:04.798Z,79.45
2023-11-23T09:52:33.192Z,79.28
2023-11-23T09:55:01.487Z,79.31
2023-11-23T09:57:29.599Z,79.80
2023-11-23T09:59:57.283Z,79.40
2023-11-23T10:02:32.826Z,78.31
2023-11-23T10:05:01.446Z,77.79
2023-11-23T10:07:29.114Z,78.12
2023-11-23T10:09:56.793Z,77.91
2023-11-23T10:12:26.516Z,77.69
2023-11-23T10:14:54.524Z,77.71
2023-11-23T10:17:22.157Z,76.96
2023-11-23T10:19:50.415Z,76.95
2023-11-23T10:22:18.875Z,76.94
2023-11-23T10:24:48.170Z,76.65
2023-11-23T10:27:17.001Z,76.64
2023-11-23T10:29:44.659Z,76.70
2023-11-23T10:32:12.338Z,76.75
2023-11-23T10:34:40.079Z,76.89
2023-11-23T10:37:07.714Z,76.82
2023-11-23T10:39:35.550Z,76.78
2023-11-23T10:42:04.506Z,76.53
2023-11-23T10:44:33.773Z,76.15
2023-11-23T10:47:04.762Z,76.14
2023-11-23T10:49:35.847Z,76.00
2023-11-23T10:52:09.656Z,75.92
2023-11-23T10:54:38.099Z,75.48
2023-11-23T10:57:08.693Z,75.13
2023-11-23T10:59:36.896Z,75.53
2023-11-23T11:02:04.779Z,75.71
2023-11-23T11:04:32.648Z,75.28
2023-11-23T11:07:00.335Z,74.99
2023-11-23T11:09:30.509Z,75.11
2023-11-23T11:12:01.662Z,74.99
2023-11-23T11:14:36.189Z,74.63
2023-11-23T11:17:07.495Z,74.42
2023-11-23T11:19:50.928Z,74.41
2023-11-23T11:22:18.964Z,74.27
2023-11-23T11:24:47.010Z,73.85
2023-11-23T11:27:14.896Z,74.52
2023-11-23T11:29:54.564Z,74.43
2023-11-23T11:32:22.499Z,73.84
2023-11-23T11:35:00.316Z,73.43
2023-11-23T11:37:29.614Z,73.85
2023-11-23T11:39:57.262Z,73.47
2023-11-23T11:42:25.240Z,73.57
2023-11-23T11:44:54.882Z,73.63
2023-11-23T11:47:24.828Z,72.81
2023-11-23T11:49:53.406Z,73.00
2023-11-23T11:52:21.004Z,73.53
2023-11-23T11:54:50.012Z,74.07
2023-11-23T11:57:19.806Z,73.15
2023-11-23T11:59:47.945Z,72.83
2023-11-23T12:02:15.791Z,72.74
2023-11-23T12:04:43.626Z,72.66
2023-11-23T12:07:15.834Z,72.88
2023-11-23T12:09:46.926Z,73.16
2023-11-23T12:12:15.388Z,72.65
2023-11-23T12:14:45.359Z,73.09
2023-11-23T12:17:13.832Z,73.14
2023-11-23T12:19:52.818Z,73.22
2023-11-23T12:22:27.581Z,73.51
2023-11-23T12:25:00.586Z,73.52
2023-11-23T12:27:28.402Z,73.52
2023-11-23T12:29:56.192Z,73.28
2023-11-23T12:32:23.964Z,73.53
2023-11-23T12:34:51.641Z,73.56
2023-11-23T12:37:20.442Z,73.64
2023-11-23T12:39:51.744Z,73.87
2023-11-23T12:42:19.697Z,73.37
2023-11-23T12:44:51.906Z,73.57
2023-11-23T12:47:26.180Z,73.42
2023-11-23T12:49:55.191Z,73.84
2023-11-23T12:52:23.540Z,73.91
2023-11-23T12:54:51.389Z,74.04
2023-11-23T12:57:19.064Z,74.12
2023-11-23T12:59:46.821Z,73.86
2023-11-23T13:02:14.728Z,74.33
2023-11-23T13:04:42.485Z,74.71
2023-11-23T13:07:10.491Z,74.74
2023-11-23T13:09:39.236Z,74.63
2023-11-23T13:12:08.616Z,74.17
2023-11-23T13:14:36.575Z,74.65
2023-11-23T13:17:04.880Z,74.83
2023-11-23T13:19:37.574Z,74.88
2023-11-23T13:22:10.960Z,75.09
2023-11-23T13:24:39.804Z,74.96
2023-11-23T13:27:09.238Z,75.82
2023-11-23T13:29:38.406Z,76.14
2023-11-23T13:32:06.984Z,76.12
2023-11-23T13:34:34.907Z,76.09
2023-11-23T13:37:03.022Z,76.26
2023-11-23T13:39:32.629Z,76.34
2023-11-23T13:42:00.812Z,76.35
2023-11-23T13:44:28.783Z,76.53
2023-11-23T13:46:56.519Z,76.55
2023-11-23T13:49:25.200Z,76.71
2023-11-23T13:51:52.925Z,76.50
2023-11-23T13:54:22.890Z,76.56
2023-11-23T13:56:50.523Z,76.64
2023-11-23T13:59:18.270Z,76.80
2023-11-23T14:01:45.967Z,77.05
2023-11-23T14:04:14.544Z,76.91
2023-11-23T14:06:43.545Z,77.23
2023-11-23T14:09:18.696Z,77.26
2023-11-23T14:11:46.896Z,77.58
2023-11-23T14:14:14.617Z,78.44
2023-11-23T14:16:43.454Z,78.51
2023-11-23T14:19:17.169Z,78.07
2023-11-23T14:21:47.813Z,79.00
2023-11-23T14:24:16.954Z,78.84
2023-11-23T14:26:44.837Z,79.13
2023-11-23T14:29:12.923Z,79.19
2023-11-23T14:31:40.818Z,79.36
2023-11-23T14:34:08.670Z,79.39
2023-11-23T14:36:36.440Z,79.47
2023-11-23T14:39:05.839Z,79.68
2023-11-23T14:41:33.625Z,80.12
2023-11-23T14:44:01.338Z,80.62
2023-11-23T14:46:31.317Z,80.57
2023-11-23T14:48:59.056Z,81.03
2023-11-23T14:51:30.502Z,81.24
2023-11-23T14:54:04.190Z,81.73
2023-11-23T14:56:37.859Z,81.58
2023-11-23T14:59:06.883Z,82.15
2023-11-23T15:01:36.388Z,82.49
2023-11-23T15:04:04.880Z,82.87
2023-11-23T15:06:32.814Z,83.17
2023-11-23T15:09:00.433Z,83.23
2023-11-23T15:11:30.019Z,83.68
2023-11-23T15:13:58.794Z,84.15
2023-11-23T15:16:26.501Z,83.93
2023-11-23T15:18:54.392Z,84.47
2023-11-23T15:21:22.175Z,84.78
2023-11-23T15:23:49.868Z,85.07
2023-11-23T15:26:17.562Z,85.06
2023-11-23T15:28:45.505Z,85.03
2023-11-23T15:31:16.815Z,85.22
2023-11-23T15:33:44.578Z,85.43
2023-11-23T15:36:12.418Z,85.38
2023-11-23T15:38:40.040Z,85.23
2023-11-23T15:41:07.744Z,85.37
2023-11-23T15:43:35.426Z,85.28
2023-11-23T15:46:06.014Z,84.99
2023-11-23T15:48:34.414Z,84.99
2023-11-23T15:51:02.065Z,85.29
2023-11-23T15:53:29.685Z,84.98
2023-11-23T15:55:57.306Z,85.02
2023-11-23T15:58:25.123Z,84.97
2023-11-23T16:00:54.048Z,84.90
2023-11-23T16:03:21.889Z,84.60
2023-11-23T16:05:49.754Z,84.47
2023-11-23T16:08:18.201Z,84.45
2023-11-23T16:10:45.944Z,84.39
2023-11-23T16:13:21.624Z,84.43
2023-11-23T16:15:49.734Z,83.83
2023-11-23T16:18:18.441Z,83.44
2023-11-23T16:20:47.009Z,83.55
2023-11-23T16:23:14.622Z,83.53
2023-11-23T16:25:42.209Z,83.08
2023-11-23T16:28:09.915Z,83.11
2023-11-23T16:30:38.138Z,83.03
2023-11-23T16:33:06.064Z,82.68
2023-11-23T16:35:33.740Z,83.01
2023-11-23T16:38:01.493Z,82.54
2023-11-23T16:40:29.200Z,81.94
2023-11-23T16:42:56.816Z,81.91
2023-11-23T16:45:24.673Z,81.82
2023-11-23T16:47:54.344Z,81.73
2023-11-23T16:50:22.446Z,81.46
2023-11-23T16:52:50.953Z,81.64
2023-11-23T16:55:18.722Z,81.40
2023-11-23T16:57:47.384Z,81.51
2023-11-23T17:00:15.892Z,81.27
2023-11-23T17:02:44.489Z,81.03
2023-11-23T17:05:15.012Z,80.89
2023-11-23T17:07:43.026Z,80.97
2023-11-23T17:10:10.756Z,80.63
2023-11-23T17:12:38.773Z,80.30
2023-11-23T17:15:08.520Z,80.42
2023-11-23T17:17:36.372Z,80.23
2023-11-23T17:20:04.259Z,80.51
2023-11-23T17:22:35.467Z,80.27
2023-11-23T17:25:04.179Z,80.30
2023-11-23T17:27:31.885Z,80.22
2023-11-23T17:30:00.063Z,79.98
2023-11-23T17:32:27.661Z,79.74
2023-11-23T17:34:55.314Z,79.81
2023-11-23T17:37:26.345Z,80.05
2023-11-23T17:39:53.946Z,79.65
2023-11-23T17:42:21.742Z,79.81
2023-11-23T17:44:49.325Z,79.86
2023-11-23T17:47:17.145Z,79.73
2023-11-23T17:49:44.716Z,79.64
2023-11-23T17:52:14.863Z,79.41
2023-11-23T17:54:44.011Z,79.37
2023-11-23T17:57:12.222Z,79.65
2023-11-23T17:59:47.760Z,79.34
2023-11-23T18:02:21.266Z,79.40
2023-11-23T18:04:53.429Z,79.38
2023-11-23T18:07:21.474Z,78.94
2023-11-23T18:09:50.595Z,79.45
2023-11-23T18:12:18.533Z,79.24
2023-11-23T18:14:46.238Z,79.38
2023-11-23T18:17:14.019Z,79.27
2023-11-23T18:19:41.819Z,79.38
2023-11-23T18:22:09.862Z,79.37
2023-11-23T18:24:37.595Z,79.04
2023-11-23T18:27:07.749Z,79.26
2023-11-23T18:29:37.290Z,79.02
2023-11-23T18:32:05.113Z,79.43
2023-11-23T18:34:35.220Z,79.01
2023-11-23T18:37:03.153Z,78.87
2023-11-23T18:39:30.895Z,79.02
2023-11-23T18:41:59.548Z,79.03
2023-11-23T18:44:27.236Z,79.14
2023-11-23T18:46:55.849Z,79.02
2023-11-23T18:49:28.808Z,78.90
2023-11-23T18:51:56.673Z,78.66
2023-11-23T18:54:25.311Z,78.80
2023-11-23T18:56:52.999Z,78.96
2023-11-23T18:59:20.630Z,78.75
2023-11-23T19:01:48.380Z,78.76
2023-11-23T19:04:16.099Z,78.66
2023-11-23T19:06:44.040Z,78.49
2023-11-23T19:09:15.467Z,78.72
2023-11-23T19:11:43.569Z,78.49
2023-11-23T19:14:11.379Z,78.52
2023-11-23T19:16:40.584Z,78.58
2023-11-23T19:19:08.801Z,78.68
2023-11-23T19:21:37.031Z,78.74
2023-11-23T19:24:05.165Z,78.67
2023-11-23T19:26:33.393Z,78.66
2023-11-23T19:29:03.622Z,78.76
2023-11-23T19:31:32.439Z,78.85
2023-11-23T19:34:00.545Z,78.80
2023-11-23T19:36:29.114Z,78.75
2023-11-23T19:38:56.988Z,78.98
2023-11-23T19:41:24.670Z,78.73
2023-11-23T19:43:52.759Z,78.80
2023-11-23T19:46:21.331Z,79.04
2023-11-23T19:48:49.428Z,79.00
2023-11-23T19:51:19.499Z,78.85
2023-11-23T19:53:47.774Z,78.91
2023-11-23T19:56:15.379Z,78.96
2023-11-23T19:58:43.219Z,79.05
2023-11-23T20:01:11.314Z,78.92
2023-11-23T20:03:39.075Z,79.00
2023-11-23T20:06:06.868Z,79.10
2023-11-23T20:08:34.449Z,79.11
2023-11-23T20:11:02.011Z,79.18
2023-11-23T20:13:29.730Z,79.14
2023-11-23T20:15:58.491Z,79.04
2023-11-23T20:18:26.192Z,78.99
2023-11-23T20:20:54.019Z,78.93
2023-11-23T20:23:21.725Z,79.13
2023-11-23T20:25:49.332Z,79.13
2023-11-23T20:28:17.053Z,78.89
2023-11-23T20:30:45.010Z,79.02
2023-11-23T20:33:16.643Z,78.98
2023-11-23T20:35:45.640Z,78.93
2023-11-23T20:38:14.008Z,79.01
2023-11-23T20:40:43.856Z,78.80
2023-11-23T20:43:12.125Z,78.86
2023-11-23T20:45:39.947Z,78.89
2023-11-23T20:48:07.941Z,78.60
2023-11-23T20:50:35.967Z,78.85
2023-11-23T20:53:05.445Z,78.83
2023-11-23T20:55:33.683Z,78.81
2023-11-23T20:58:01.585Z,78.74
2023-11-23T21:00:29.549Z,78.75
2023-11-23T21:02:58.857Z,78.66
2023-11-23T21:05:28.373Z,78.66
2023-11-23T21:07:56.318Z,78.76
2023-11-23T21:10:24.151Z,78.80
2023-11-23T21:12:51.780Z,78.77
2023-11-23T21:15:21.545Z,78.75
2023-11-23T21:17:49.284Z,78.79
2023-11-23T21:20:17.088Z,78.71
2023-11-23T21:22:44.846Z,78.89
2023-11-23T21:25:12.567Z,79.03
2023-11-23T21:27:40.530Z,79.13
2023-11-23T21:30:08.852Z,79.39
2023-11-23T21:32:36.610Z,79.64
2023-11-23T21:35:04.817Z,80.39
2023-11-23T21:37:32.444Z,80.26
2023-11-23T21:40:00.386Z,80.65
2023-11-23T21:42:28.254Z,80.77
2023-11-23T21:44:57.726Z,81.26
2023-11-23T21:47:25.323Z,81.64
2023-11-23T21:49:52.917Z,81.58
2023-11-23T21:52:20.539Z,81.95
2023-11-23T21:54:57.420Z,82.06
2023-11-23T21:57:31.384Z,82.38
2023-11-23T21:59:59.373Z,82.30
2023-11-23T22:02:27.048Z,82.24
2023-11-23T22:04:55.309Z,82.38
2023-11-23T22:07:24.292Z,82.35
2023-11-23T22:09:52.311Z,82.21
2023-11-23T22:12:20.374Z,82.12
2023-11-23T22:14:48.301Z,82.28
2023-11-23T22:17:16.376Z,82.35
2023-11-23T22:19:44.492Z,82.20
2023-11-23T22:22:12.565Z,82.24
2023-11-23T22:24:41.036Z,82.15
2023-11-23T22:27:09.337Z,82.23
2023-11-23T22:29:37.112Z,82.07
2023-11-23T22:32:05.670Z,82.27
2023-11-23T22:34:33.928Z,82.23
2023-11-23T22:37:02.090Z,82.34
2023-11-23T22:39:29.855Z,82.28
2023-11-23T22:41:57.979Z,82.33
2023-11-23T22:44:25.861Z,82.31
2023-11-23T22:46:54.026Z,82.59
2023-11-23T22:49:21.781Z,82.63
2023-11-23T22:51:49.554Z,83.04
2023-11-23T22:54:17.222Z,83.22
2023-11-23T22:56:45.033Z,83.62
2023-11-23T22:59:12.648Z,83.88
2023-11-23T23:01:40.340Z,83.90
2023-11-23T23:04:11.192Z,84.13
2023-11-23T23:06:39.005Z,84.59
2023-11-23T23:09:09.055Z,84.69
2023-11-23T23:11:37.126Z,84.57
2023-11-23T23:14:05.643Z,84.93
2023-11-23T23:16:33.703Z,84.94
2023-11-23T23:19:01.464Z,84.95
2023-11-23T23:21:32.577Z,84.70
2023-11-23T23:24:00.434Z,84.76
2023-11-23T23:26:28.004Z,84.88
2023-11-23T23:28:55.689Z,84.80
2023-11-23T23:31:23.275Z,84.97
2023-11-23T23:33:51.016Z,85.02
2023-11-23T23:36:18.658Z,85.11
2023-11-23T23:38:46.548Z,85.23
2023-11-23T23:41:14.919Z,85.27
2023-11-23T23:43:46.803Z,85.39
2023-11-23T23:46:14.676Z,85.56
2023-11-23T23:48:42.381Z,85.72
2023-11-23T23:51:10.034Z,85.96
2023-11-23T23:53:38.934Z,86.07
2023-11-23T23:56:08.033Z,86.29
2023-11-23T23:58:36.131Z,86.28
